AirNav   Air Wisconsin Up To $57,000 Bonus
 
 751 users online  

MU08 Lee's Summit Heliport
Lee's Summit, Missouri, USA

GOING TO LEE'S SUMMIT?


FAA INFORMATION EFFECTIVE 07 NOVEMBER 2019

Location

FAA Identifier: MU08
Lat/Long: 38-55-21.0500N 094-24-20.7300W
38-55.350833N 094-24.345500W
38.9225139,-94.4057583
(estimated)
Elevation: 1000 ft. / 305 m (estimated)
Variation: 05E (1985)
Time zone: UTC -6 (UTC -5 during Daylight Saving Time)
Zip code: 64081

Heliport Operations

Heliport use: Private use, MEDICAL.
Activation date: 09/1980
Control tower: no
ARTCC: KANSAS CITY CENTER
FSS: COLUMBIA FLIGHT SERVICE STATION
Attendance: UNATNDD
Wind indicator: yes
Segmented circle: no

Heliport Communications

WX ASOS at LXT (2.7 nm NE): 124.175 (816-347-9807)
WX ASOS at MKC (15 nm NW): PHONE 816-329-2843
WX ASOS at OJC (16 nm W): PHONE 913-780-6969
WX AWOS-3PT at LRY (19 nm S): 119.975 (816-380-5936)

Nearby radio navigation aids

VOR radial/distance  VOR name  Freq  Var
ANXr224/16.6NAPOLEON VORTAC114.0007E
MCIr140/26.7KANSAS CITY VORTAC113.2505E
BUMr359/39.2BUTLER VORTAC115.9007E

Heliport Services

Runway Information

Helipad H1

Dimensions: 35 x 35 ft. / 11 x 11 m
Surface: asphalt
Latitude: 38-55.350833N
Longitude: 094-24.345500W
Elevation: 1000.0 ft.
Traffic pattern: leftleft
Obstructions: 100 ft. ant, 300 ft. from runway
100' ANTENNA 300' NE; 30' BLDG 80' NE; 16' TANK 80' NW.

Heliport Ownership and Management from official FAA records

Ownership: Privately-owned
Owner: LEE'S SUMMIT HOSPITAL
530 NORTH MURRAY ROAD
LEE'S SUMMIT, MO 64063
Phone 816-525-2950
Manager: TIM MCGINNIS
2100 BLUE PARKWAY
LEE'S SUMMIT, MO 64063
Phone (816) 282-5086

Additional Remarks

OWNER DOES NOT WANT ARPT CHARTED.
FOR CD CTC KANSAS CITY APCH AT 816-329-2710.

Instrument Procedures

There are no published instrument procedures at MU08.

Some nearby airports with instrument procedures:

KLXT - Lee's Summit Municipal Airport (3 nm NE)
3GV - East Kansas City Airport (10 nm NE)
KMKC - Charles B Wheeler Downtown Airport (15 nm NW)
KOJC - Johnson County Executive Airport (16 nm W)
KLRY - Lawrence Smith Memorial Airport (19 nm S)
 
Loc | Ops | Rwys | IFR | FBO | Links
Com | Nav | Svcs | Stats | Notes

Kansas City Aviation Department
 
Area around MU08 (Lee's Summit Heliport)
 
Road maps at: MapQuest Bing Google
 
Aerial photo
No photo
 
Sectional chart

 
Airport distance calculator
Flying to Lee's Summit Heliport? Find the distance to fly.

From to MU08

Sunrise and sunset
Times for 15-Nov-2019
 Local
(UTC-6)
 Zulu
(UTC)
Morning civil twilight06:3312:33
Sunrise07:0113:01
Sunset17:0323:03
Evening civil twilight17:3223:32

Current date and time
Zulu (UTC)  16-Nov-2019 02:08:43
Local (UTC-6)  15-Nov-2019 20:08:43
 
METAR
KLXT 
3nm NE 
160153Z AUTO 13005KT 10SM CLR 06/M03 A3031 RMK AO2 SLP270 T00611033
KMKC 
15nm NW 
160154Z 13005KT 10SM CLR 08/M03 A3030 RMK AO2 SLP264 T00781028
KOJC 
16nm W 
160153Z 13005KT 10SM CLR 05/M02 A3029 RMK AO2 SLP267 T00501022
KLRY 
19nm S 
160155Z AUTO 12004KT 10SM CLR 03/M02 A3033 RMK AO2
TAF
KMKC 
15nm NW 
151736Z 1518/1618 18005KT P6SM FEW250 FM161500 15012KT P6SM SCT200
NOTAMs
Click for the latest NOTAMs
NOTAMs are issued by the DoD/FAA and will open in a separate window not controlled by AirNav.

 

 
 

Would you like to see your business listed on this page?

 If your business provides an interesting product or service to pilots, flight crews, aircraft, or users of the Lee's Summit Heliport, you should consider listing it here.  To start the listing process, click on the button below
 
Add a business
 

Other Pages about Lee's Summit Heliport

Update a link
 
Copyright © AirNav, LLC. All rights reserved. Privacy Policy  Contact